createdAt,value
2018-10-11T00:00:32.013Z,17.77
2018-10-11T00:02:38.133Z,17.78
2018-10-11T00:04:44.268Z,17.77
2018-10-11T00:06:50.376Z,17.76
2018-10-11T00:08:56.557Z,17.76
2018-10-11T00:11:02.724Z,17.75
2018-10-11T00:13:08.808Z,17.74
2018-10-11T00:15:14.942Z,17.72
2018-10-11T00:17:21.028Z,17.70
2018-10-11T00:19:27.149Z,17.67
2018-10-11T00:21:33.244Z,17.65
2018-10-11T00:23:39.331Z,17.64
2018-10-11T00:25:45.415Z,17.63
2018-10-11T00:27:51.547Z,17.63
2018-10-11T00:29:57.680Z,17.64
2018-10-11T00:32:03.835Z,17.67
2018-10-11T00:34:09.932Z,17.70
2018-10-11T00:36:16.083Z,17.73
2018-10-11T00:38:22.333Z,17.74
2018-10-11T00:40:28.476Z,17.76
2018-10-11T00:42:34.545Z,17.78
2018-10-11T00:44:40.662Z,17.75
2018-10-11T00:46:53.380Z,17.72
2018-10-11T00:48:59.509Z,17.69
2018-10-11T00:51:05.686Z,17.68
2018-10-11T00:53:11.903Z,17.68
2018-10-11T00:55:18.043Z,17.67
2018-10-11T00:57:24.137Z,17.64
2018-10-11T00:59:30.233Z,17.63
2018-10-11T01:01:36.548Z,17.60
2018-10-11T01:03:42.634Z,17.59
2018-10-11T01:05:48.762Z,17.53
2018-10-11T01:07:54.868Z,17.49
2018-10-11T01:10:01.034Z,17.47
2018-10-11T01:12:07.036Z,17.47
2018-10-11T01:14:13.208Z,17.46
2018-10-11T01:16:19.309Z,17.44
2018-10-11T01:18:25.514Z,17.38
2018-10-11T01:20:31.666Z,17.32
2018-10-11T01:22:37.798Z,17.25
2018-10-11T01:24:43.952Z,17.22
2018-10-11T01:26:50.097Z,17.21
2018-10-11T01:28:56.204Z,17.21
2018-10-11T01:31:07.502Z,17.19
2018-10-11T01:33:13.642Z,17.15
2018-10-11T01:35:19.736Z,17.13
2018-10-11T01:37:27.438Z,17.09
2018-10-11T01:39:33.927Z,17.08
2018-10-11T01:41:40.022Z,17.08
2018-10-11T01:43:46.115Z,17.09
2018-10-11T01:45:52.230Z,17.08
2018-10-11T01:47:58.699Z,17.08
2018-10-11T01:50:05.224Z,17.03
2018-10-11T01:52:11.304Z,16.93
2018-10-11T01:54:17.423Z,16.84
2018-10-11T01:56:23.579Z,16.72
2018-10-11T01:58:29.660Z,16.68
2018-10-11T02:00:35.792Z,16.68
2018-10-11T02:02:41.885Z,16.71
2018-10-11T02:04:48.008Z,16.74
2018-10-11T02:06:54.124Z,16.76
2018-10-11T02:09:00.209Z,16.78
2018-10-11T02:11:06.738Z,16.78
2018-10-11T02:13:12.818Z,16.78
2018-10-11T02:15:18.892Z,16.77
2018-10-11T02:17:24.984Z,16.71
2018-10-11T02:19:31.112Z,16.61
2018-10-11T02:21:37.222Z,16.49
2018-10-11T02:23:43.352Z,16.34
2018-10-11T02:25:49.540Z,16.20
2018-10-11T02:27:55.703Z,16.11
2018-10-11T02:30:02.455Z,16.04
2018-10-11T02:32:08.710Z,15.95
2018-10-11T02:34:14.806Z,15.87
2018-10-11T02:36:20.915Z,15.79
2018-10-11T02:38:27.010Z,15.76
2018-10-11T02:40:33.053Z,15.77
2018-10-11T02:42:39.249Z,15.80
2018-10-11T02:44:45.343Z,15.88
2018-10-11T02:46:51.922Z,15.93
2018-10-11T02:48:58.028Z,15.91
2018-10-11T02:51:04.110Z,15.92
2018-10-11T02:53:10.170Z,15.96
2018-10-11T02:55:27.481Z,16.00
2018-10-11T02:57:50.368Z,15.96
2018-10-11T02:59:56.484Z,15.89
2018-10-11T03:02:17.398Z,15.84
2018-10-11T03:04:23.581Z,15.83
2018-10-11T03:06:29.758Z,15.84
2018-10-11T03:08:35.897Z,15.87
2018-10-11T03:10:42.061Z,15.87
2018-10-11T03:12:55.198Z,15.89
2018-10-11T03:15:01.319Z,15.90
2018-10-11T03:17:07.535Z,15.81
2018-10-11T03:19:13.653Z,15.69
2018-10-11T03:21:19.788Z,15.55
2018-10-11T03:23:25.892Z,15.42
2018-10-11T03:25:31.935Z,15.29
2018-10-11T03:27:38.288Z,15.15
2018-10-11T03:29:44.709Z,15.11
2018-10-11T03:31:50.818Z,15.14
2018-10-11T03:33:56.921Z,15.22
2018-10-11T03:36:03.011Z,15.25
2018-10-11T03:38:09.116Z,15.28
2018-10-11T03:40:15.229Z,15.29
2018-10-11T03:42:21.303Z,15.25
2018-10-11T03:44:28.088Z,15.12
2018-10-11T03:46:34.227Z,14.96
2018-10-11T03:48:40.277Z,14.88
2018-10-11T03:50:46.398Z,14.90
2018-10-11T03:52:52.452Z,14.92
2018-10-11T03:54:58.573Z,14.92
2018-10-11T03:57:04.684Z,14.95
2018-10-11T03:59:10.788Z,14.98
2018-10-11T04:01:16.926Z,14.96
2018-10-11T04:03:23.060Z,14.93
2018-10-11T04:05:29.140Z,14.89
2018-10-11T04:07:35.333Z,14.87
2018-10-11T04:09:41.664Z,14.81
2018-10-11T04:11:47.743Z,14.76
2018-10-11T04:13:53.833Z,14.70
2018-10-11T04:15:59.909Z,14.70
2018-10-11T04:18:06.444Z,14.75
2018-10-11T04:20:13.342Z,14.82
2018-10-11T04:22:19.507Z,14.89
2018-10-11T04:24:25.677Z,14.94
2018-10-11T04:26:31.751Z,14.98
2018-10-11T04:28:37.879Z,15.01
2018-10-11T04:30:43.992Z,15.02
2018-10-11T04:32:50.071Z,15.03
2018-10-11T04:34:56.228Z,15.02
2018-10-11T04:37:02.341Z,15.03
2018-10-11T04:39:10.001Z,15.03
2018-10-11T04:41:16.172Z,15.05
2018-10-11T04:43:22.633Z,15.05
2018-10-11T04:45:28.778Z,15.05
2018-10-11T04:47:34.830Z,15.05
2018-10-11T04:49:41.180Z,15.01
2018-10-11T04:51:47.369Z,14.96
2018-10-11T04:53:55.564Z,14.97
2018-10-11T04:56:01.675Z,15.00
2018-10-11T04:58:07.883Z,15.03
2018-10-11T05:00:14.017Z,15.05
2018-10-11T05:02:20.236Z,15.08
2018-10-11T05:04:26.312Z,15.12
2018-10-11T05:06:32.459Z,15.18
2018-10-11T05:08:38.705Z,15.25
2018-10-11T05:10:45.431Z,15.30
2018-10-11T05:12:51.687Z,15.33
2018-10-11T05:14:57.988Z,15.36
2018-10-11T05:17:04.169Z,15.39
2018-10-11T05:19:11.133Z,15.42
2018-10-11T05:21:17.314Z,15.42
2018-10-11T05:23:23.408Z,15.42
2018-10-11T05:25:29.522Z,15.43
2018-10-11T05:27:35.598Z,15.44
2018-10-11T05:29:41.713Z,15.49
2018-10-11T05:31:48.064Z,15.53
2018-10-11T05:33:54.877Z,15.54
2018-10-11T05:36:00.947Z,15.53
2018-10-11T05:38:07.159Z,15.55
2018-10-11T05:40:13.263Z,15.58
2018-10-11T05:42:19.576Z,15.60
2018-10-11T05:44:25.927Z,15.61
2018-10-11T05:46:33.705Z,15.61
2018-10-11T05:48:39.900Z,15.63
2018-10-11T05:50:46.076Z,15.63
2018-10-11T05:52:53.211Z,15.64
2018-10-11T05:54:59.356Z,15.66
2018-10-11T05:57:05.553Z,15.70
2018-10-11T05:59:12.196Z,15.73
2018-10-11T06:01:18.425Z,15.75
2018-10-11T06:03:24.751Z,15.77
2018-10-11T06:05:31.535Z,15.78
2018-10-11T06:07:37.712Z,15.79
2018-10-11T06:09:43.833Z,15.81
2018-10-11T06:11:50.095Z,15.87
2018-10-11T06:13:56.275Z,15.89
2018-10-11T06:16:02.613Z,15.92
2018-10-11T06:18:09.047Z,15.96
2018-10-11T06:20:15.333Z,16.00
2018-10-11T06:22:21.445Z,16.05
2018-10-11T06:24:27.631Z,16.09
2018-10-11T06:26:33.755Z,16.14
2018-10-11T06:28:40.004Z,16.16
2018-10-11T06:30:46.198Z,16.16
2018-10-11T06:32:52.342Z,16.17
2018-10-11T06:34:58.528Z,16.19
2018-10-11T06:37:04.847Z,16.21
2018-10-11T06:39:11.851Z,16.21
2018-10-11T06:41:18.008Z,16.23
2018-10-11T06:43:24.245Z,16.26
2018-10-11T06:45:30.377Z,16.30
2018-10-11T06:47:36.515Z,16.31
2018-10-11T06:49:42.716Z,16.31
2018-10-11T06:51:48.996Z,16.33
2018-10-11T06:53:55.154Z,16.35
2018-10-11T06:56:01.456Z,16.36
2018-10-11T06:58:07.599Z,16.40
2018-10-11T07:00:13.767Z,16.44
2018-10-11T07:02:19.912Z,16.47
2018-10-11T07:04:26.037Z,16.50
2018-10-11T07:06:32.205Z,16.53
2018-10-11T07:08:38.384Z,16.57
2018-10-11T07:10:44.513Z,16.58
2018-10-11T07:12:50.685Z,16.61
2018-10-11T07:14:56.781Z,16.64
2018-10-11T07:17:02.980Z,16.68
2018-10-11T07:19:09.176Z,16.73
2018-10-11T07:21:15.251Z,16.79
2018-10-11T07:23:21.345Z,16.86
2018-10-11T07:25:27.464Z,16.93
2018-10-11T07:27:33.754Z,17.00
2018-10-11T07:29:39.848Z,17.06
2018-10-11T07:31:45.987Z,17.11
2018-10-11T07:33:52.083Z,17.15
2018-10-11T07:35:58.175Z,17.17
2018-10-11T07:38:04.333Z,17.19
2018-10-11T07:40:10.484Z,17.24
2018-10-11T07:42:16.648Z,17.28
2018-10-11T07:44:22.765Z,17.31
2018-10-11T07:46:28.861Z,17.33
2018-10-11T07:48:34.977Z,17.35
2018-10-11T07:50:41.198Z,17.41
2018-10-11T07:52:47.347Z,17.43
2018-10-11T07:54:53.445Z,17.48
2018-10-11T07:57:00.146Z,17.53
2018-10-11T07:59:06.520Z,17.62
2018-10-11T08:01:12.753Z,17.69
2018-10-11T08:03:18.899Z,17.80
2018-10-11T08:05:25.076Z,17.89
2018-10-11T08:07:31.660Z,17.99
2018-10-11T08:09:37.748Z,18.03
2018-10-11T08:11:44.118Z,18.07
2018-10-11T08:13:50.185Z,18.10
2018-10-11T08:15:56.490Z,18.14
2018-10-11T08:18:02.768Z,18.20
2018-10-11T08:20:08.874Z,18.18
2018-10-11T08:22:14.892Z,18.21
2018-10-11T08:24:21.050Z,18.23
2018-10-11T08:26:27.444Z,18.28
2018-10-11T08:28:33.423Z,18.32
2018-10-11T08:30:39.529Z,18.36
2018-10-11T08:32:45.702Z,18.39
2018-10-11T08:34:51.916Z,18.41
2018-10-11T08:36:58.091Z,18.40
2018-10-11T08:39:05.585Z,18.41
2018-10-11T08:41:11.759Z,18.45
2018-10-11T08:43:17.897Z,18.47
2018-10-11T08:45:24.020Z,18.50
2018-10-11T08:47:30.120Z,18.50
2018-10-11T08:49:36.219Z,18.49
2018-10-11T08:51:42.333Z,18.48
2018-10-11T08:53:48.450Z,18.50
2018-10-11T08:55:54.635Z,18.52
2018-10-11T08:58:00.728Z,18.53
2018-10-11T09:00:08.933Z,18.56
2018-10-11T09:02:15.180Z,18.60
2018-10-11T09:04:21.336Z,18.63
2018-10-11T09:06:27.505Z,18.68
2018-10-11T09:08:33.571Z,18.71
2018-10-11T09:10:39.745Z,18.77
2018-10-11T09:12:45.838Z,18.82
2018-10-11T09:14:52.014Z,18.84
2018-10-11T09:19:04.868Z,18.94
2018-10-11T09:21:11.107Z,19.02
2018-10-11T09:23:17.368Z,19.08
2018-10-11T09:25:23.474Z,19.13
2018-10-11T09:27:29.560Z,19.18
2018-10-11T09:29:35.667Z,19.24
2018-10-11T09:31:41.760Z,19.29
2018-10-11T09:33:47.866Z,19.33
2018-10-11T09:35:54.017Z,19.39
2018-10-11T09:38:00.134Z,19.43
2018-10-11T09:40:07.229Z,19.47
2018-10-11T09:42:13.352Z,19.52
2018-10-11T09:44:19.448Z,19.57
2018-10-11T09:46:25.540Z,19.62
2018-10-11T09:48:31.754Z,19.67
2018-10-11T09:50:37.871Z,19.73
2018-10-11T09:52:45.271Z,19.78
2018-10-11T09:54:51.421Z,19.82
2018-10-11T09:57:32.044Z,19.86
2018-10-11T09:59:38.124Z,19.89
2018-10-11T10:01:46.970Z,19.92
2018-10-11T10:03:53.047Z,19.95
2018-10-11T10:05:59.282Z,19.99
2018-10-11T10:08:05.424Z,20.02
2018-10-11T10:10:11.609Z,20.07
2018-10-11T10:12:18.193Z,20.10
2018-10-11T10:14:24.274Z,20.17
2018-10-11T10:16:30.404Z,20.22
2018-10-11T10:18:36.522Z,20.25
2018-10-11T10:20:42.637Z,20.30
2018-10-11T10:22:48.777Z,20.34
2018-10-11T10:24:54.852Z,20.37
2018-10-11T10:27:01.021Z,20.42
2018-10-11T10:29:07.159Z,20.46
2018-10-11T10:31:13.277Z,20.51
2018-10-11T10:33:19.420Z,20.56
2018-10-11T10:35:25.584Z,20.62
2018-10-11T10:37:31.655Z,20.65
2018-10-11T10:39:37.821Z,20.71
2018-10-11T10:41:44.043Z,20.75
2018-10-11T10:43:50.187Z,20.81
2018-10-11T10:45:56.358Z,20.86
2018-10-11T10:48:02.461Z,20.91
2018-10-11T10:50:08.632Z,20.98
2018-10-11T10:52:14.784Z,21.07
2018-10-11T10:54:27.731Z,21.15
2018-10-11T10:56:33.864Z,21.24
2018-10-11T10:58:39.963Z,21.32
2018-10-11T11:00:46.082Z,21.41
2018-10-11T11:02:52.212Z,21.49
2018-10-11T11:04:58.373Z,21.56
2018-10-11T11:07:04.480Z,21.64
2018-10-11T11:09:12.532Z,21.70
2018-10-11T11:11:18.615Z,21.74
2018-10-11T11:13:24.785Z,21.80
2018-10-11T11:15:30.896Z,21.84
2018-10-11T11:17:37.004Z,21.87
2018-10-11T11:19:43.270Z,21.90
2018-10-11T11:21:49.412Z,21.92
2018-10-11T11:23:55.518Z,21.95
2018-10-11T11:26:01.645Z,21.98
2018-10-11T11:28:07.860Z,22.01
2018-10-11T11:30:13.983Z,22.02
2018-10-11T11:32:20.105Z,22.04
2018-10-11T11:34:26.237Z,22.04
2018-10-11T11:36:32.362Z,22.03
2018-10-11T11:38:38.540Z,22.05
2018-10-11T11:40:44.686Z,22.06
2018-10-11T11:42:50.759Z,22.09
2018-10-11T11:44:56.896Z,22.11
2018-10-11T11:47:02.965Z,22.13
2018-10-11T11:49:09.045Z,22.13
2018-10-11T11:51:15.138Z,22.16
2018-10-11T11:53:21.284Z,22.18
2018-10-11T11:55:27.512Z,22.21
2018-10-11T11:57:33.619Z,22.26
2018-10-11T11:59:39.699Z,22.31
2018-10-11T12:01:45.840Z,22.36
2018-10-11T12:03:52.628Z,22.40
2018-10-11T12:05:58.810Z,22.45
2018-10-11T12:08:04.883Z,22.47
2018-10-11T12:10:10.999Z,22.50
2018-10-11T12:13:25.148Z,22.55
2018-10-11T12:15:32.125Z,22.55
2018-10-11T12:17:38.189Z,22.55
2018-10-11T12:19:44.304Z,22.58
2018-10-11T12:21:50.387Z,22.61
2018-10-11T12:26:01.220Z,22.67
2018-10-11T12:28:07.474Z,22.70
2018-10-11T12:30:13.962Z,22.75
2018-10-11T12:32:20.066Z,22.78
2018-10-11T12:34:26.183Z,22.78
2018-10-11T12:36:32.330Z,22.81
2018-10-11T12:38:38.445Z,22.84
2018-10-11T12:40:44.612Z,22.88
2018-10-11T12:42:50.716Z,22.91
2018-10-11T12:44:56.853Z,22.95
2018-10-11T12:47:05.349Z,22.99
2018-10-11T12:49:11.497Z,23.02
2018-10-11T12:51:17.662Z,23.05
2018-10-11T12:53:23.922Z,23.08
2018-10-11T12:55:30.114Z,23.12
2018-10-11T12:57:36.466Z,23.16
2018-10-11T12:59:42.469Z,23.17
2018-10-11T13:01:48.611Z,23.17
2018-10-11T13:03:54.728Z,23.18
2018-10-11T13:06:00.869Z,23.18
2018-10-11T13:08:06.975Z,23.19
2018-10-11T13:10:13.119Z,23.19
2018-10-11T13:12:19.315Z,23.18
2018-10-11T13:14:25.379Z,23.18
2018-10-11T13:16:31.628Z,23.18
2018-10-11T13:18:37.760Z,23.19
2018-10-11T13:20:43.918Z,23.20
2018-10-11T13:22:50.046Z,23.20
2018-10-11T13:24:56.190Z,23.19
2018-10-11T13:27:02.614Z,23.17
2018-10-11T13:29:08.739Z,23.14
2018-10-11T13:31:14.861Z,23.11
2018-10-11T13:33:20.966Z,23.10
2018-10-11T13:35:27.080Z,23.10
2018-10-11T13:37:33.302Z,23.10
2018-10-11T13:39:39.781Z,23.12
2018-10-11T13:41:45.789Z,23.13
2018-10-11T13:43:51.968Z,23.13
2018-10-11T13:46:01.203Z,23.14
2018-10-11T13:48:04.341Z,23.13
2018-10-11T13:50:11.064Z,23.14
2018-10-11T13:52:20.558Z,23.14
2018-10-11T13:54:23.347Z,23.15
2018-10-11T13:56:29.473Z,23.14
2018-10-11T13:58:35.575Z,23.13
2018-10-11T14:00:41.768Z,23.13
2018-10-11T14:02:47.792Z,23.12
2018-10-11T14:04:53.919Z,23.12
2018-10-11T14:07:00.109Z,23.12
2018-10-11T14:09:10.252Z,23.13
2018-10-11T14:11:16.437Z,23.13
2018-10-11T14:13:22.585Z,23.11
2018-10-11T14:15:28.741Z,23.10
2018-10-11T14:17:34.925Z,23.08
2018-10-11T14:19:41.001Z,23.05
2018-10-11T14:21:47.131Z,23.06
2018-10-11T14:23:53.286Z,23.02
2018-10-11T14:25:59.384Z,23.01
2018-10-11T14:28:05.574Z,23.00
2018-10-11T14:30:11.713Z,22.98
2018-10-11T14:32:17.836Z,22.99
2018-10-11T14:34:23.934Z,23.00
2018-10-11T14:36:30.705Z,22.99
2018-10-11T14:38:36.763Z,22.97
2018-10-11T14:40:42.916Z,22.97
2018-10-11T14:42:49.095Z,22.96
2018-10-11T14:44:55.251Z,22.94
2018-10-11T14:47:01.458Z,22.92
2018-10-11T14:49:07.600Z,22.88
2018-10-11T14:51:13.814Z,22.83
2018-10-11T14:53:19.830Z,22.82
2018-10-11T14:55:26.017Z,22.82
2018-10-11T14:57:32.190Z,22.79
2018-10-11T14:59:38.469Z,22.75
2018-10-11T15:01:44.548Z,22.72
2018-10-11T15:03:50.685Z,22.71
2018-10-11T15:05:56.849Z,22.71
2018-10-11T15:08:03.030Z,22.71
2018-10-11T15:10:09.263Z,22.69
2018-10-11T15:12:15.393Z,22.68
2018-10-11T15:14:21.530Z,22.68
2018-10-11T15:16:28.168Z,22.64
2018-10-11T15:22:44.021Z,22.64
2018-10-11T15:24:50.218Z,22.64
2018-10-11T15:29:01.342Z,22.62
2018-10-11T15:31:07.528Z,22.60
2018-10-11T15:33:13.973Z,22.57
2018-10-11T15:35:20.770Z,22.57
2018-10-11T15:37:26.939Z,22.56
2018-10-11T15:39:33.208Z,22.53
2018-10-11T15:41:39.603Z,22.48
2018-10-11T15:43:45.781Z,22.42
2018-10-11T15:45:51.932Z,22.40
2018-10-11T15:47:58.126Z,22.40
2018-10-11T15:50:04.304Z,22.40
2018-10-11T15:52:10.826Z,22.42
2018-10-11T15:54:17.032Z,22.43
2018-10-11T15:56:23.156Z,22.42
2018-10-11T15:58:29.302Z,22.39
2018-10-11T16:00:35.436Z,22.33
2018-10-11T16:02:41.521Z,22.26
2018-10-11T16:04:47.689Z,22.18
2018-10-11T16:06:53.841Z,22.12
2018-10-11T16:09:00.161Z,22.07
2018-10-11T16:11:06.257Z,22.03
2018-10-11T16:13:12.514Z,22.00
2018-10-11T16:15:18.674Z,21.99
2018-10-11T16:17:24.863Z,21.98
2018-10-11T16:19:53.194Z,21.95
2018-10-11T16:22:22.264Z,21.90
2018-10-11T16:24:28.421Z,21.84
2018-10-11T16:26:34.708Z,21.81
2018-10-11T16:28:40.931Z,21.78
2018-10-11T16:30:47.083Z,21.74
2018-10-11T16:32:53.308Z,21.72
2018-10-11T16:34:59.469Z,21.69
2018-10-11T16:37:05.615Z,21.67
2018-10-11T16:39:11.750Z,21.65
2018-10-11T16:41:17.887Z,21.62
2018-10-11T16:43:24.008Z,21.61
2018-10-11T16:45:30.121Z,21.60
2018-10-11T16:47:36.371Z,21.56
2018-10-11T16:49:42.595Z,21.52
2018-10-11T16:51:48.745Z,21.48
2018-10-11T16:53:55.180Z,21.44
2018-10-11T16:56:01.261Z,21.40
2018-10-11T16:58:07.922Z,21.38
2018-10-11T17:00:13.989Z,21.36
2018-10-11T17:02:20.216Z,21.38
2018-10-11T17:04:26.400Z,21.40
2018-10-11T17:06:32.609Z,21.43
2018-10-11T17:08:38.907Z,21.45
2018-10-11T17:10:45.098Z,21.45
2018-10-11T17:12:51.306Z,21.44
2018-10-11T17:14:57.517Z,21.40
2018-10-11T17:17:03.677Z,21.37
2018-10-11T17:19:32.340Z,21.36
2018-10-11T17:22:00.576Z,21.35
2018-10-11T17:24:07.072Z,21.34
2018-10-11T17:26:13.302Z,21.34
2018-10-11T17:28:19.491Z,21.32
2018-10-11T17:30:25.716Z,21.32
2018-10-11T17:32:31.901Z,21.32
2018-10-11T17:34:38.101Z,21.32
2018-10-11T17:36:44.337Z,21.32
2018-10-11T17:38:50.444Z,21.31
2018-10-11T17:40:56.702Z,21.30
2018-10-11T17:43:02.973Z,21.29
2018-10-11T17:45:09.389Z,21.28
2018-10-11T17:47:15.523Z,21.27
2018-10-11T17:49:21.698Z,21.25
2018-10-11T17:51:28.369Z,21.22
2018-10-11T17:53:34.871Z,21.18
2018-10-11T17:55:41.073Z,21.12
2018-10-11T17:57:47.319Z,21.07
2018-10-11T17:59:53.536Z,21.04
2018-10-11T18:01:59.875Z,21.05
2018-10-11T18:04:06.312Z,21.07
2018-10-11T18:06:12.616Z,21.09
2018-10-11T18:08:18.817Z,21.10
2018-10-11T18:10:25.049Z,21.09
2018-10-11T18:12:31.242Z,21.10
2018-10-11T18:14:37.645Z,21.09
2018-10-11T18:16:43.825Z,21.09
2018-10-11T18:19:19.001Z,21.09
2018-10-11T18:21:48.226Z,21.07
2018-10-11T18:23:54.320Z,21.06
2018-10-11T18:26:00.489Z,21.08
2018-10-11T18:28:06.723Z,21.09
2018-10-11T18:30:13.571Z,21.10
2018-10-11T18:32:19.774Z,21.10
2018-10-11T18:34:26.013Z,21.11
2018-10-11T18:36:32.136Z,21.11
2018-10-11T18:38:38.497Z,21.09
2018-10-11T18:40:44.647Z,21.09
2018-10-11T18:42:50.777Z,21.10
2018-10-11T18:44:57.245Z,21.09
2018-10-11T18:47:03.531Z,21.09
2018-10-11T18:49:10.375Z,21.07
2018-10-11T18:51:16.651Z,21.06
2018-10-11T18:53:24.153Z,21.02
2018-10-11T18:55:30.344Z,20.96
2018-10-11T18:57:36.911Z,20.86
2018-10-11T18:59:43.090Z,20.79
2018-10-11T19:01:49.273Z,20.72
2018-10-11T19:03:55.451Z,20.67
2018-10-11T19:06:01.614Z,20.67
2018-10-11T19:08:07.829Z,20.70
2018-10-11T19:10:14.059Z,20.73
2018-10-11T19:12:20.356Z,20.75
2018-10-11T19:14:26.528Z,20.75
2018-10-11T19:16:32.864Z,20.76
2018-10-11T19:19:09.231Z,20.77
2018-10-11T19:21:38.201Z,20.74
2018-10-11T19:23:44.497Z,20.73
2018-10-11T19:25:51.730Z,20.71
2018-10-11T19:27:57.938Z,20.69
2018-10-11T19:30:04.263Z,20.66
2018-10-11T19:32:10.612Z,20.63
2018-10-11T19:34:16.809Z,20.58
2018-10-11T19:36:22.953Z,20.48
2018-10-11T19:38:29.171Z,20.42
2018-10-11T19:40:35.399Z,20.41
2018-10-11T19:42:41.657Z,20.41
2018-10-11T19:44:48.140Z,20.39
2018-10-11T19:46:54.346Z,20.31
2018-10-11T19:49:00.651Z,20.21
2018-10-11T19:51:07.013Z,20.13
2018-10-11T19:53:13.292Z,20.06
2018-10-11T19:55:19.436Z,19.99
2018-10-11T19:57:25.645Z,19.95
2018-10-11T19:59:31.861Z,19.93
2018-10-11T20:01:38.827Z,19.95
2018-10-11T20:03:45.009Z,19.95
2018-10-11T20:05:51.288Z,19.94
2018-10-11T20:07:57.711Z,19.96
2018-10-11T20:10:03.844Z,19.98
2018-10-11T20:12:10.043Z,20.01
2018-10-11T20:14:16.218Z,20.05
2018-10-11T20:16:22.452Z,20.06
2018-10-11T20:18:28.630Z,20.05
2018-10-11T20:21:14.777Z,20.03
2018-10-11T20:23:39.081Z,19.97
2018-10-11T20:25:45.422Z,19.93
2018-10-11T20:27:51.552Z,19.89
2018-10-11T20:29:57.702Z,19.89
2018-10-11T20:32:04.096Z,19.89
2018-10-11T20:34:10.407Z,19.87
2018-10-11T20:36:16.576Z,19.85
2018-10-11T20:38:22.757Z,19.87
2018-10-11T20:40:29.053Z,19.89
2018-10-11T20:42:35.208Z,19.93
2018-10-11T20:44:41.364Z,19.93
2018-10-11T20:46:47.671Z,19.97
2018-10-11T20:48:53.906Z,19.97
2018-10-11T20:51:00.289Z,19.97
2018-10-11T20:53:06.883Z,19.94
2018-10-11T20:55:13.119Z,19.90
2018-10-11T20:57:19.540Z,19.86
2018-10-11T20:59:25.637Z,19.85
2018-10-11T21:01:33.277Z,19.87
2018-10-11T21:03:40.206Z,19.88
2018-10-11T21:05:47.761Z,19.93
2018-10-11T21:07:53.929Z,19.95
2018-10-11T21:10:00.458Z,19.95
2018-10-11T21:12:06.836Z,19.94
2018-10-11T21:14:13.005Z,19.93
2018-10-11T21:16:19.186Z,19.88
2018-10-11T21:18:25.353Z,19.87
2018-10-11T21:20:53.422Z,19.86
2018-10-11T21:23:21.842Z,19.83
2018-10-11T21:25:28.037Z,19.79
2018-10-11T21:27:34.880Z,19.77
2018-10-11T21:29:40.941Z,19.77
2018-10-11T21:31:47.086Z,19.76
2018-10-11T21:33:53.231Z,19.77
2018-10-11T21:35:59.376Z,19.78
2018-10-11T21:38:05.708Z,19.75
2018-10-11T21:40:12.523Z,19.69
2018-10-11T21:42:18.571Z,19.62
2018-10-11T21:44:24.821Z,19.63
2018-10-11T21:46:30.887Z,19.64
2018-10-11T21:48:36.994Z,19.63
2018-10-11T21:50:43.094Z,19.64
2018-10-11T21:52:49.226Z,19.62
2018-10-11T21:54:55.304Z,19.58
2018-10-11T21:57:01.401Z,19.52
2018-10-11T21:59:08.260Z,19.43
2018-10-11T22:01:21.976Z,19.35
2018-10-11T22:03:28.127Z,19.31
2018-10-11T22:05:34.256Z,19.29
2018-10-11T22:07:40.401Z,19.28
2018-10-11T22:09:46.522Z,19.29
2018-10-11T22:11:52.701Z,19.33
2018-10-11T22:13:58.949Z,19.37
2018-10-11T22:16:05.148Z,19.42
2018-10-11T22:18:11.572Z,19.48
2018-10-11T22:20:39.993Z,19.49
2018-10-11T22:23:08.915Z,19.53
2018-10-11T22:25:15.137Z,19.55
2018-10-11T22:27:21.205Z,19.55
2018-10-11T22:29:27.313Z,19.56
2018-10-11T22:31:33.433Z,19.57
2018-10-11T22:33:39.924Z,19.57
2018-10-11T22:35:46.036Z,19.59
2018-10-11T22:37:59.647Z,19.60
2018-10-11T22:40:05.902Z,19.60
2018-10-11T22:42:12.319Z,19.59
2018-10-11T22:44:18.493Z,19.57
2018-10-11T22:46:24.825Z,19.57
2018-10-11T22:48:30.935Z,19.55
2018-10-11T22:50:37.203Z,19.54
2018-10-11T22:52:43.291Z,19.54
2018-10-11T22:54:49.487Z,19.52
2018-10-11T22:56:55.589Z,19.51
2018-10-11T22:59:01.741Z,19.51
2018-10-11T23:01:08.034Z,19.49
2018-10-11T23:03:14.169Z,19.47
2018-10-11T23:05:20.335Z,19.45
2018-10-11T23:07:26.510Z,19.44
2018-10-11T23:09:32.619Z,19.41
2018-10-11T23:11:38.719Z,19.39
2018-10-11T23:13:44.852Z,19.39
2018-10-11T23:15:50.936Z,19.35
2018-10-11T23:17:57.096Z,19.31
2018-10-11T23:20:25.963Z,19.28
2018-10-11T23:22:54.219Z,19.24
2018-10-11T23:25:00.407Z,19.20
2018-10-11T23:27:06.594Z,19.16
2018-10-11T23:29:12.707Z,19.12
2018-10-11T23:31:18.843Z,19.12
2018-10-11T23:33:25.377Z,19.11
2018-10-11T23:35:31.477Z,19.04
2018-10-11T23:37:37.641Z,18.99
2018-10-11T23:39:43.736Z,18.96
2018-10-11T23:41:49.825Z,18.93
2018-10-11T23:43:55.895Z,18.93
2018-10-11T23:46:02.056Z,18.91
2018-10-11T23:48:08.739Z,18.90
2018-10-11T23:50:14.864Z,18.87
2018-10-11T23:52:20.963Z,18.85
2018-10-11T23:54:27.068Z,18.83
2018-10-11T23:56:33.162Z,18.81
2018-10-11T23:58:39.249Z,18.78
